sensor_id;sensor_type;location;lat;lon;timestamp;P1;durP1;ratioP1;P2;durP2;ratioP2
13891;SDS011;7016;48.172;8.058;2024-01-11T00:02:19;52.58;;;26.02;;
13891;SDS011;7016;48.172;8.058;2024-01-11T00:05:06;48.78;;;26.42;;
13891;SDS011;7016;48.172;8.058;2024-01-11T00:07:53;51.58;;;26.38;;
13891;SDS011;7016;48.172;8.058;2024-01-11T00:10:39;50.17;;;25.77;;
13891;SDS011;7016;48.172;8.058;2024-01-11T00:13:25;49.35;;;25.90;;
13891;SDS011;7016;48.172;8.058;2024-01-11T00:16:11;48.20;;;26.40;;
13891;SDS011;7016;48.172;8.058;2024-01-11T00:18:57;43.78;;;24.48;;
13891;SDS011;7016;48.172;8.058;2024-01-11T00:21:44;46.75;;;24.17;;
13891;SDS011;7016;48.172;8.058;2024-01-11T00:24:30;44.08;;;23.38;;
13891;SDS011;7016;48.172;8.058;2024-01-11T00:27:16;43.20;;;22.88;;
13891;SDS011;7016;48.172;8.058;2024-01-11T00:30:03;44.30;;;24.00;;
13891;SDS011;7016;48.172;8.058;2024-01-11T00:32:50;47.55;;;25.70;;
13891;SDS011;7016;48.172;8.058;2024-01-11T00:35:36;45.78;;;24.77;;
13891;SDS011;7016;48.172;8.058;2024-01-11T00:38:23;46.20;;;24.23;;
13891;SDS011;7016;48.172;8.058;2024-01-11T00:41:09;45.28;;;22.02;;
13891;SDS011;7016;48.172;8.058;2024-01-11T00:43:55;46.42;;;23.48;;
13891;SDS011;7016;48.172;8.058;2024-01-11T00:46:41;44.03;;;23.55;;
13891;SDS011;7016;48.172;8.058;2024-01-11T00:49:27;42.40;;;22.90;;
13891;SDS011;7016;48.172;8.058;2024-01-11T00:52:13;45.80;;;22.83;;
13891;SDS011;7016;48.172;8.058;2024-01-11T00:55:00;45.83;;;24.55;;
13891;SDS011;7016;48.172;8.058;2024-01-11T00:57:46;44.35;;;24.02;;
13891;SDS011;7016;48.172;8.058;2024-01-11T01:00:32;43.50;;;23.20;;
13891;SDS011;7016;48.172;8.058;2024-01-11T01:03:19;45.85;;;24.00;;
13891;SDS011;7016;48.172;8.058;2024-01-11T01:06:05;47.00;;;25.02;;
13891;SDS011;7016;48.172;8.058;2024-01-11T01:08:52;46.20;;;24.67;;
13891;SDS011;7016;48.172;8.058;2024-01-11T01:11:38;44.30;;;23.58;;
13891;SDS011;7016;48.172;8.058;2024-01-11T01:14:24;49.35;;;23.35;;
13891;SDS011;7016;48.172;8.058;2024-01-11T01:17:10;45.45;;;23.67;;
13891;SDS011;7016;48.172;8.058;2024-01-11T01:19:56;45.00;;;24.00;;
13891;SDS011;7016;48.172;8.058;2024-01-11T01:22:43;48.53;;;25.02;;
13891;SDS011;7016;48.172;8.058;2024-01-11T01:25:29;49.83;;;25.38;;
13891;SDS011;7016;48.172;8.058;2024-01-11T01:28:15;48.22;;;22.85;;
13891;SDS011;7016;48.172;8.058;2024-01-11T01:31:02;45.13;;;22.83;;
13891;SDS011;7016;48.172;8.058;2024-01-11T01:33:48;45.50;;;24.00;;
13891;SDS011;7016;48.172;8.058;2024-01-11T01:36:34;45.70;;;24.15;;
13891;SDS011;7016;48.172;8.058;2024-01-11T01:39:20;43.78;;;22.65;;
13891;SDS011;7016;48.172;8.058;2024-01-11T01:42:07;43.40;;;22.42;;
13891;SDS011;7016;48.172;8.058;2024-01-11T01:44:53;47.55;;;23.70;;
13891;SDS011;7016;48.172;8.058;2024-01-11T01:47:40;47.67;;;24.35;;
13891;SDS011;7016;48.172;8.058;2024-01-11T01:50:27;46.97;;;23.70;;
13891;SDS011;7016;48.172;8.058;2024-01-11T01:53:14;47.05;;;23.77;;
13891;SDS011;7016;48.172;8.058;2024-01-11T01:56:00;46.97;;;22.85;;
13891;SDS011;7016;48.172;8.058;2024-01-11T01:58:48;45.83;;;23.63;;
13891;SDS011;7016;48.172;8.058;2024-01-11T02:01:37;46.75;;;24.55;;
13891;SDS011;7016;48.172;8.058;2024-01-11T02:04:23;52.05;;;25.15;;
13891;SDS011;7016;48.172;8.058;2024-01-11T02:07:09;47.35;;;23.35;;
13891;SDS011;7016;48.172;8.058;2024-01-11T02:09:56;46.53;;;24.50;;
13891;SDS011;7016;48.172;8.058;2024-01-11T02:12:43;50.40;;;24.27;;
13891;SDS011;7016;48.172;8.058;2024-01-11T02:15:30;47.17;;;24.05;;
13891;SDS011;7016;48.172;8.058;2024-01-11T02:18:16;43.92;;;22.10;;
13891;SDS011;7016;48.172;8.058;2024-01-11T02:21:03;41.85;;;22.63;;
13891;SDS011;7016;48.172;8.058;2024-01-11T02:24:05;45.03;;;22.98;;
13891;SDS011;7016;48.172;8.058;2024-01-11T02:26:57;43.53;;;21.90;;
13891;SDS011;7016;48.172;8.058;2024-01-11T02:29:50;40.38;;;21.10;;
13891;SDS011;7016;48.172;8.058;2024-01-11T02:32:36;42.60;;;22.75;;
13891;SDS011;7016;48.172;8.058;2024-01-11T02:35:22;45.15;;;23.75;;
13891;SDS011;7016;48.172;8.058;2024-01-11T02:38:10;44.08;;;22.80;;
13891;SDS011;7016;48.172;8.058;2024-01-11T02:40:56;39.20;;;21.20;;
13891;SDS011;7016;48.172;8.058;2024-01-11T02:43:47;47.72;;;24.00;;
13891;SDS011;7016;48.172;8.058;2024-01-11T02:46:34;41.78;;;22.05;;
13891;SDS011;7016;48.172;8.058;2024-01-11T02:49:20;44.42;;;22.65;;
13891;SDS011;7016;48.172;8.058;2024-01-11T02:52:06;40.92;;;22.10;;
13891;SDS011;7016;48.172;8.058;2024-01-11T02:54:52;43.38;;;23.42;;
13891;SDS011;7016;48.172;8.058;2024-01-11T02:57:38;44.42;;;22.23;;
13891;SDS011;7016;48.172;8.058;2024-01-11T03:00:25;46.78;;;22.83;;
13891;SDS011;7016;48.172;8.058;2024-01-11T03:03:11;47.65;;;23.70;;
13891;SDS011;7016;48.172;8.058;2024-01-11T03:05:57;46.13;;;23.38;;
13891;SDS011;7016;48.172;8.058;2024-01-11T03:08:43;45.05;;;23.63;;
13891;SDS011;7016;48.172;8.058;2024-01-11T03:11:29;44.40;;;22.92;;
13891;SDS011;7016;48.172;8.058;2024-01-11T03:14:16;42.88;;;21.88;;
13891;SDS011;7016;48.172;8.058;2024-01-11T03:17:03;43.03;;;21.30;;
13891;SDS011;7016;48.172;8.058;2024-01-11T03:19:50;45.45;;;21.90;;
13891;SDS011;7016;48.172;8.058;2024-01-11T03:22:36;48.90;;;21.73;;
13891;SDS011;7016;48.172;8.058;2024-01-11T03:25:22;43.17;;;21.63;;
13891;SDS011;7016;48.172;8.058;2024-01-11T03:28:08;48.00;;;22.30;;
13891;SDS011;7016;48.172;8.058;2024-01-11T03:30:54;41.03;;;21.73;;
13891;SDS011;7016;48.172;8.058;2024-01-11T03:33:41;45.10;;;22.00;;
13891;SDS011;7016;48.172;8.058;2024-01-11T03:36:27;41.53;;;21.67;;
13891;SDS011;7016;48.172;8.058;2024-01-11T03:39:13;47.67;;;23.15;;
13891;SDS011;7016;48.172;8.058;2024-01-11T03:41:59;43.00;;;22.60;;
13891;SDS011;7016;48.172;8.058;2024-01-11T03:44:45;45.80;;;21.95;;
13891;SDS011;7016;48.172;8.058;2024-01-11T03:47:32;46.10;;;23.10;;
13891;SDS011;7016;48.172;8.058;2024-01-11T03:50:18;48.30;;;23.08;;
13891;SDS011;7016;48.172;8.058;2024-01-11T03:53:05;39.58;;;21.63;;
13891;SDS011;7016;48.172;8.058;2024-01-11T03:55:51;44.15;;;22.70;;
13891;SDS011;7016;48.172;8.058;2024-01-11T03:58:37;43.67;;;21.98;;
13891;SDS011;7016;48.172;8.058;2024-01-11T04:01:27;45.00;;;23.33;;
13891;SDS011;7016;48.172;8.058;2024-01-11T04:04:14;45.95;;;22.52;;
13891;SDS011;7016;48.172;8.058;2024-01-11T04:07:00;46.88;;;22.92;;
13891;SDS011;7016;48.172;8.058;2024-01-11T04:09:46;44.42;;;22.45;;
13891;SDS011;7016;48.172;8.058;2024-01-11T04:12:32;42.75;;;20.98;;
13891;SDS011;7016;48.172;8.058;2024-01-11T04:15:19;44.50;;;23.58;;
13891;SDS011;7016;48.172;8.058;2024-01-11T04:18:05;47.03;;;24.35;;
13891;SDS011;7016;48.172;8.058;2024-01-11T04:20:51;45.97;;;22.63;;
13891;SDS011;7016;48.172;8.058;2024-01-11T04:23:38;47.25;;;23.58;;
13891;SDS011;7016;48.172;8.058;2024-01-11T04:26:24;53.85;;;23.35;;
13891;SDS011;7016;48.172;8.058;2024-01-11T04:29:10;54.00;;;25.55;;
13891;SDS011;7016;48.172;8.058;2024-01-11T04:31:56;47.28;;;24.02;;
13891;SDS011;7016;48.172;8.058;2024-01-11T04:34:43;48.30;;;23.70;;
13891;SDS011;7016;48.172;8.058;2024-01-11T04:37:30;52.40;;;24.60;;
13891;SDS011;7016;48.172;8.058;2024-01-11T04:40:16;49.08;;;24.70;;
13891;SDS011;7016;48.172;8.058;2024-01-11T04:43:02;55.28;;;25.15;;
13891;SDS011;7016;48.172;8.058;2024-01-11T04:45:49;52.38;;;25.38;;
13891;SDS011;7016;48.172;8.058;2024-01-11T04:48:35;49.03;;;23.88;;
13891;SDS011;7016;48.172;8.058;2024-01-11T04:51:21;51.08;;;24.48;;
13891;SDS011;7016;48.172;8.058;2024-01-11T04:54:07;47.58;;;23.48;;
13891;SDS011;7016;48.172;8.058;2024-01-11T04:56:54;51.20;;;24.38;;
13891;SDS011;7016;48.172;8.058;2024-01-11T04:59:40;53.38;;;25.67;;
13891;SDS011;7016;48.172;8.058;2024-01-11T05:02:26;71.32;;;29.70;;
13891;SDS011;7016;48.172;8.058;2024-01-11T05:05:12;53.28;;;26.42;;
13891;SDS011;7016;48.172;8.058;2024-01-11T05:07:59;56.75;;;26.27;;
13891;SDS011;7016;48.172;8.058;2024-01-11T05:10:45;56.55;;;27.48;;
13891;SDS011;7016;48.172;8.058;2024-01-11T05:13:31;58.15;;;26.40;;
13891;SDS011;7016;48.172;8.058;2024-01-11T05:16:22;58.80;;;27.48;;
13891;SDS011;7016;48.172;8.058;2024-01-11T05:19:09;61.22;;;26.90;;
13891;SDS011;7016;48.172;8.058;2024-01-11T05:21:56;61.00;;;29.40;;
13891;SDS011;7016;48.172;8.058;2024-01-11T05:24:42;53.92;;;27.42;;
13891;SDS011;7016;48.172;8.058;2024-01-11T05:27:28;66.40;;;33.40;;
13891;SDS011;7016;48.172;8.058;2024-01-11T05:30:14;50.78;;;24.38;;
13891;SDS011;7016;48.172;8.058;2024-01-11T05:33:00;50.97;;;24.75;;
13891;SDS011;7016;48.172;8.058;2024-01-11T05:35:47;50.92;;;23.70;;
13891;SDS011;7016;48.172;8.058;2024-01-11T05:38:33;50.28;;;25.02;;
13891;SDS011;7016;48.172;8.058;2024-01-11T05:41:20;48.40;;;24.40;;
13891;SDS011;7016;48.172;8.058;2024-01-11T05:44:06;50.53;;;24.63;;
13891;SDS011;7016;48.172;8.058;2024-01-11T05:46:52;48.50;;;23.55;;
13891;SDS011;7016;48.172;8.058;2024-01-11T05:49:39;50.67;;;23.95;;
13891;SDS011;7016;48.172;8.058;2024-01-11T05:52:26;51.35;;;24.77;;
13891;SDS011;7016;48.172;8.058;2024-01-11T05:55:12;49.55;;;23.67;;
13891;SDS011;7016;48.172;8.058;2024-01-11T05:57:58;55.25;;;25.08;;
13891;SDS011;7016;48.172;8.058;2024-01-11T06:00:45;46.72;;;23.65;;
13891;SDS011;7016;48.172;8.058;2024-01-11T06:03:31;48.90;;;23.83;;
13891;SDS011;7016;48.172;8.058;2024-01-11T06:06:19;52.63;;;25.50;;
13891;SDS011;7016;48.172;8.058;2024-01-11T06:09:06;50.33;;;24.30;;
13891;SDS011;7016;48.172;8.058;2024-01-11T06:11:52;47.35;;;23.05;;
13891;SDS011;7016;48.172;8.058;2024-01-11T06:14:39;49.67;;;25.10;;
13891;SDS011;7016;48.172;8.058;2024-01-11T06:17:25;53.92;;;24.52;;
13891;SDS011;7016;48.172;8.058;2024-01-11T06:20:11;49.78;;;24.85;;
13891;SDS011;7016;48.172;8.058;2024-01-11T06:22:57;55.28;;;27.45;;
13891;SDS011;7016;48.172;8.058;2024-01-11T06:25:44;52.10;;;25.25;;
13891;SDS011;7016;48.172;8.058;2024-01-11T06:28:31;50.72;;;24.70;;
13891;SDS011;7016;48.172;8.058;2024-01-11T06:31:17;58.47;;;27.65;;
13891;SDS011;7016;48.172;8.058;2024-01-11T06:34:04;58.58;;;28.30;;
13891;SDS011;7016;48.172;8.058;2024-01-11T06:36:50;58.63;;;26.90;;
13891;SDS011;7016;48.172;8.058;2024-01-11T06:39:36;61.03;;;27.42;;
13891;SDS011;7016;48.172;8.058;2024-01-11T06:42:22;57.65;;;27.55;;
13891;SDS011;7016;48.172;8.058;2024-01-11T06:45:08;61.80;;;28.48;;
13891;SDS011;7016;48.172;8.058;2024-01-11T06:47:55;57.28;;;28.63;;
13891;SDS011;7016;48.172;8.058;2024-01-11T06:50:42;53.90;;;27.88;;
13891;SDS011;7016;48.172;8.058;2024-01-11T06:53:28;55.50;;;28.77;;
13891;SDS011;7016;48.172;8.058;2024-01-11T06:56:18;56.22;;;27.67;;
13891;SDS011;7016;48.172;8.058;2024-01-11T06:59:05;65.82;;;32.50;;
13891;SDS011;7016;48.172;8.058;2024-01-11T07:01:52;64.60;;;32.08;;
13891;SDS011;7016;48.172;8.058;2024-01-11T07:04:42;53.03;;;26.52;;
13891;SDS011;7016;48.172;8.058;2024-01-11T07:07:30;49.67;;;25.48;;
13891;SDS011;7016;48.172;8.058;2024-01-11T07:10:16;64.25;;;30.70;;
13891;SDS011;7016;48.172;8.058;2024-01-11T07:13:03;57.15;;;28.80;;
13891;SDS011;7016;48.172;8.058;2024-01-11T07:15:49;47.38;;;24.55;;
13891;SDS011;7016;48.172;8.058;2024-01-11T07:18:37;49.47;;;24.70;;
13891;SDS011;7016;48.172;8.058;2024-01-11T07:21:23;47.63;;;24.08;;
13891;SDS011;7016;48.172;8.058;2024-01-11T07:24:16;55.35;;;25.30;;
13891;SDS011;7016;48.172;8.058;2024-01-11T07:27:04;53.97;;;26.45;;
13891;SDS011;7016;48.172;8.058;2024-01-11T07:29:51;53.22;;;24.55;;
13891;SDS011;7016;48.172;8.058;2024-01-11T07:32:37;52.85;;;25.30;;
13891;SDS011;7016;48.172;8.058;2024-01-11T07:35:23;60.00;;;25.77;;
13891;SDS011;7016;48.172;8.058;2024-01-11T07:38:09;51.47;;;24.80;;
13891;SDS011;7016;48.172;8.058;2024-01-11T07:40:55;53.92;;;26.67;;
13891;SDS011;7016;48.172;8.058;2024-01-11T07:43:42;56.05;;;26.67;;
13891;SDS011;7016;48.172;8.058;2024-01-11T07:46:29;45.42;;;24.98;;
13891;SDS011;7016;48.172;8.058;2024-01-11T07:49:15;53.35;;;25.73;;
13891;SDS011;7016;48.172;8.058;2024-01-11T07:52:01;55.08;;;25.73;;
13891;SDS011;7016;48.172;8.058;2024-01-11T07:54:47;53.85;;;25.08;;
13891;SDS011;7016;48.172;8.058;2024-01-11T07:57:34;49.83;;;24.75;;
13891;SDS011;7016;48.172;8.058;2024-01-11T08:00:20;52.17;;;26.33;;
13891;SDS011;7016;48.172;8.058;2024-01-11T08:03:06;52.30;;;25.00;;
13891;SDS011;7016;48.172;8.058;2024-01-11T08:05:54;53.80;;;24.98;;
13891;SDS011;7016;48.172;8.058;2024-01-11T08:08:40;45.70;;;24.00;;
13891;SDS011;7016;48.172;8.058;2024-01-11T08:11:26;52.88;;;24.05;;
13891;SDS011;7016;48.172;8.058;2024-01-11T08:14:14;50.25;;;24.65;;
13891;SDS011;7016;48.172;8.058;2024-01-11T08:17:01;49.92;;;24.90;;
13891;SDS011;7016;48.172;8.058;2024-01-11T08:19:50;54.97;;;27.23;;
13891;SDS011;7016;48.172;8.058;2024-01-11T08:22:36;62.10;;;30.50;;
13891;SDS011;7016;48.172;8.058;2024-01-11T08:25:23;74.93;;;33.80;;
13891;SDS011;7016;48.172;8.058;2024-01-11T08:28:09;64.63;;;30.75;;
13891;SDS011;7016;48.172;8.058;2024-01-11T08:30:55;67.78;;;33.60;;
13891;SDS011;7016;48.172;8.058;2024-01-11T08:33:41;65.10;;;32.90;;
13891;SDS011;7016;48.172;8.058;2024-01-11T08:36:30;68.40;;;32.75;;
13891;SDS011;7016;48.172;8.058;2024-01-11T08:39:20;67.22;;;30.85;;
13891;SDS011;7016;48.172;8.058;2024-01-11T08:42:07;57.00;;;28.67;;
13891;SDS011;7016;48.172;8.058;2024-01-11T08:44:53;62.97;;;30.60;;
13891;SDS011;7016;48.172;8.058;2024-01-11T08:47:40;59.97;;;29.63;;
13891;SDS011;7016;48.172;8.058;2024-01-11T08:50:26;61.65;;;29.90;;
13891;SDS011;7016;48.172;8.058;2024-01-11T08:53:12;68.20;;;33.65;;
13891;SDS011;7016;48.172;8.058;2024-01-11T08:55:58;63.15;;;32.17;;
13891;SDS011;7016;48.172;8.058;2024-01-11T08:58:44;66.28;;;34.22;;
13891;SDS011;7016;48.172;8.058;2024-01-11T09:01:30;78.05;;;38.35;;
13891;SDS011;7016;48.172;8.058;2024-01-11T09:04:18;69.35;;;33.40;;
13891;SDS011;7016;48.172;8.058;2024-01-11T09:07:04;71.60;;;34.92;;
13891;SDS011;7016;48.172;8.058;2024-01-11T09:09:50;65.63;;;33.78;;
13891;SDS011;7016;48.172;8.058;2024-01-11T09:12:36;74.47;;;36.80;;
13891;SDS011;7016;48.172;8.058;2024-01-11T09:15:22;75.60;;;35.88;;
13891;SDS011;7016;48.172;8.058;2024-01-11T09:18:08;71.13;;;34.55;;
13891;SDS011;7016;48.172;8.058;2024-01-11T09:20:55;75.50;;;36.38;;
13891;SDS011;7016;48.172;8.058;2024-01-11T09:23:41;63.10;;;33.15;;
13891;SDS011;7016;48.172;8.058;2024-01-11T09:26:27;66.80;;;33.40;;
13891;SDS011;7016;48.172;8.058;2024-01-11T09:29:14;62.72;;;31.98;;
13891;SDS011;7016;48.172;8.058;2024-01-11T09:32:00;69.68;;;34.95;;
13891;SDS011;7016;48.172;8.058;2024-01-11T09:34:46;87.55;;;44.15;;
13891;SDS011;7016;48.172;8.058;2024-01-11T09:37:32;70.43;;;38.85;;
13891;SDS011;7016;48.172;8.058;2024-01-11T09:40:19;76.60;;;40.35;;
13891;SDS011;7016;48.172;8.058;2024-01-11T09:43:05;74.90;;;39.25;;
13891;SDS011;7016;48.172;8.058;2024-01-11T09:45:54;72.35;;;38.45;;
13891;SDS011;7016;48.172;8.058;2024-01-11T09:48:43;70.72;;;37.33;;
13891;SDS011;7016;48.172;8.058;2024-01-11T09:51:30;63.28;;;30.95;;
13891;SDS011;7016;48.172;8.058;2024-01-11T09:54:19;60.25;;;29.88;;
13891;SDS011;7016;48.172;8.058;2024-01-11T09:57:06;56.70;;;27.50;;
13891;SDS011;7016;48.172;8.058;2024-01-11T09:59:57;57.88;;;30.85;;
13891;SDS011;7016;48.172;8.058;2024-01-11T10:02:43;59.22;;;29.70;;
13891;SDS011;7016;48.172;8.058;2024-01-11T10:05:31;57.10;;;29.95;;
13891;SDS011;7016;48.172;8.058;2024-01-11T10:08:21;55.22;;;28.45;;
13891;SDS011;7016;48.172;8.058;2024-01-11T10:11:07;51.33;;;28.85;;
13891;SDS011;7016;48.172;8.058;2024-01-11T10:13:57;66.10;;;33.85;;
13891;SDS011;7016;48.172;8.058;2024-01-11T10:16:44;63.40;;;32.90;;
13891;SDS011;7016;48.172;8.058;2024-01-11T10:19:31;58.47;;;30.67;;
13891;SDS011;7016;48.172;8.058;2024-01-11T10:22:17;54.47;;;29.70;;
13891;SDS011;7016;48.172;8.058;2024-01-11T10:25:10;59.25;;;30.38;;
13891;SDS011;7016;48.172;8.058;2024-01-11T10:27:58;55.40;;;27.98;;
13891;SDS011;7016;48.172;8.058;2024-01-11T10:30:48;55.40;;;28.98;;
13891;SDS011;7016;48.172;8.058;2024-01-11T10:33:38;57.77;;;30.93;;
13891;SDS011;7016;48.172;8.058;2024-01-11T10:36:24;66.00;;;31.48;;
13891;SDS011;7016;48.172;8.058;2024-01-11T10:39:11;56.95;;;30.63;;
13891;SDS011;7016;48.172;8.058;2024-01-11T10:42:04;55.15;;;30.63;;
13891;SDS011;7016;48.172;8.058;2024-01-11T10:44:52;63.97;;;31.63;;
13891;SDS011;7016;48.172;8.058;2024-01-11T10:47:50;62.80;;;31.25;;
13891;SDS011;7016;48.172;8.058;2024-01-11T10:50:44;64.80;;;32.72;;
13891;SDS011;7016;48.172;8.058;2024-01-11T10:53:33;64.70;;;32.25;;
13891;SDS011;7016;48.172;8.058;2024-01-11T10:56:29;61.70;;;32.20;;
13891;SDS011;7016;48.172;8.058;2024-01-11T10:59:17;59.83;;;32.47;;
13891;SDS011;7016;48.172;8.058;2024-01-11T11:02:06;59.45;;;31.80;;
13891;SDS011;7016;48.172;8.058;2024-01-11T11:04:57;65.40;;;34.22;;
13891;SDS011;7016;48.172;8.058;2024-01-11T11:07:45;61.13;;;32.92;;
13891;SDS011;7016;48.172;8.058;2024-01-11T11:10:36;60.60;;;32.05;;
13891;SDS011;7016;48.172;8.058;2024-01-11T11:13:26;63.72;;;34.00;;
13891;SDS011;7016;48.172;8.058;2024-01-11T11:16:14;68.68;;;32.35;;
13891;SDS011;7016;48.172;8.058;2024-01-11T11:19:05;61.28;;;32.20;;
13891;SDS011;7016;48.172;8.058;2024-01-11T11:21:52;61.60;;;33.25;;
13891;SDS011;7016;48.172;8.058;2024-01-11T11:24:38;62.17;;;32.45;;
13891;SDS011;7016;48.172;8.058;2024-01-11T11:27:24;63.67;;;34.42;;
13891;SDS011;7016;48.172;8.058;2024-01-11T11:30:11;66.95;;;33.35;;
13891;SDS011;7016;48.172;8.058;2024-01-11T11:32:57;65.40;;;33.17;;
13891;SDS011;7016;48.172;8.058;2024-01-11T11:35:43;57.72;;;31.52;;
13891;SDS011;7016;48.172;8.058;2024-01-11T11:38:37;59.60;;;31.73;;
13891;SDS011;7016;48.172;8.058;2024-01-11T11:41:24;68.78;;;32.33;;
13891;SDS011;7016;48.172;8.058;2024-01-11T11:44:12;66.47;;;34.28;;
13891;SDS011;7016;48.172;8.058;2024-01-11T11:47:18;66.85;;;34.72;;
13891;SDS011;7016;48.172;8.058;2024-01-11T11:50:06;66.43;;;33.25;;
13891;SDS011;7016;48.172;8.058;2024-01-11T11:52:54;78.07;;;34.72;;
13891;SDS011;7016;48.172;8.058;2024-01-11T11:55:44;67.00;;;33.63;;
13891;SDS011;7016;48.172;8.058;2024-01-11T11:58:31;62.60;;;34.50;;
13891;SDS011;7016;48.172;8.058;2024-01-11T12:01:18;69.85;;;35.05;;
13891;SDS011;7016;48.172;8.058;2024-01-11T12:04:05;67.93;;;34.40;;
13891;SDS011;7016;48.172;8.058;2024-01-11T12:06:53;70.90;;;34.22;;
13891;SDS011;7016;48.172;8.058;2024-01-11T12:09:40;70.32;;;34.42;;
13891;SDS011;7016;48.172;8.058;2024-01-11T12:12:26;67.63;;;34.28;;
13891;SDS011;7016;48.172;8.058;2024-01-11T12:15:14;65.72;;;34.92;;
13891;SDS011;7016;48.172;8.058;2024-01-11T12:18:00;62.17;;;34.00;;
13891;SDS011;7016;48.172;8.058;2024-01-11T12:20:46;64.30;;;34.15;;
13891;SDS011;7016;48.172;8.058;2024-01-11T12:23:33;68.40;;;35.85;;
13891;SDS011;7016;48.172;8.058;2024-01-11T12:26:20;62.67;;;33.55;;
13891;SDS011;7016;48.172;8.058;2024-01-11T12:29:07;71.30;;;34.97;;
13891;SDS011;7016;48.172;8.058;2024-01-11T12:31:55;67.32;;;35.67;;
13891;SDS011;7016;48.172;8.058;2024-01-11T12:34:48;67.60;;;35.00;;
13891;SDS011;7016;48.172;8.058;2024-01-11T12:37:34;59.05;;;32.65;;
13891;SDS011;7016;48.172;8.058;2024-01-11T12:40:21;69.35;;;34.55;;
13891;SDS011;7016;48.172;8.058;2024-01-11T12:43:07;71.85;;;36.63;;
13891;SDS011;7016;48.172;8.058;2024-01-11T12:45:54;67.20;;;35.08;;
13891;SDS011;7016;48.172;8.058;2024-01-11T12:48:41;66.70;;;33.22;;
13891;SDS011;7016;48.172;8.058;2024-01-11T12:51:30;59.72;;;33.05;;
13891;SDS011;7016;48.172;8.058;2024-01-11T12:54:22;65.50;;;33.75;;
13891;SDS011;7016;48.172;8.058;2024-01-11T12:57:10;71.68;;;35.95;;
13891;SDS011;7016;48.172;8.058;2024-01-11T13:00:08;62.20;;;34.17;;
13891;SDS011;7016;48.172;8.058;2024-01-11T13:03:04;62.80;;;34.42;;
13891;SDS011;7016;48.172;8.058;2024-01-11T13:05:50;67.90;;;34.45;;
13891;SDS011;7016;48.172;8.058;2024-01-11T13:08:37;58.88;;;31.33;;
13891;SDS011;7016;48.172;8.058;2024-01-11T13:11:25;62.20;;;32.97;;
13891;SDS011;7016;48.172;8.058;2024-01-11T13:14:11;73.72;;;34.08;;
13891;SDS011;7016;48.172;8.058;2024-01-11T13:17:04;64.57;;;33.05;;
13891;SDS011;7016;48.172;8.058;2024-01-11T13:19:50;62.08;;;32.83;;
13891;SDS011;7016;48.172;8.058;2024-01-11T13:22:37;68.35;;;35.15;;
13891;SDS011;7016;48.172;8.058;2024-01-11T13:25:23;76.68;;;36.60;;
13891;SDS011;7016;48.172;8.058;2024-01-11T13:28:10;65.00;;;35.25;;
13891;SDS011;7016;48.172;8.058;2024-01-11T13:30:59;68.03;;;35.08;;
13891;SDS011;7016;48.172;8.058;2024-01-11T13:33:47;66.13;;;34.17;;
13891;SDS011;7016;48.172;8.058;2024-01-11T13:36:34;68.47;;;35.00;;
13891;SDS011;7016;48.172;8.058;2024-01-11T13:39:20;70.75;;;35.58;;
13891;SDS011;7016;48.172;8.058;2024-01-11T13:42:09;67.78;;;33.50;;
13891;SDS011;7016;48.172;8.058;2024-01-11T13:44:56;69.88;;;35.28;;
13891;SDS011;7016;48.172;8.058;2024-01-11T13:47:42;62.75;;;33.35;;
13891;SDS011;7016;48.172;8.058;2024-01-11T13:50:28;63.65;;;35.97;;
13891;SDS011;7016;48.172;8.058;2024-01-11T13:53:14;64.03;;;33.65;;
13891;SDS011;7016;48.172;8.058;2024-01-11T13:56:01;63.55;;;34.03;;
13891;SDS011;7016;48.172;8.058;2024-01-11T13:58:47;61.38;;;33.95;;
13891;SDS011;7016;48.172;8.058;2024-01-11T14:01:34;63.22;;;35.03;;
13891;SDS011;7016;48.172;8.058;2024-01-11T14:04:20;67.50;;;35.20;;
13891;SDS011;7016;48.172;8.058;2024-01-11T14:07:08;69.35;;;35.22;;
13891;SDS011;7016;48.172;8.058;2024-01-11T14:09:54;63.35;;;33.38;;
13891;SDS011;7016;48.172;8.058;2024-01-11T14:12:41;67.53;;;36.95;;
13891;SDS011;7016;48.172;8.058;2024-01-11T14:15:27;68.85;;;36.97;;
13891;SDS011;7016;48.172;8.058;2024-01-11T14:18:13;66.25;;;34.70;;
13891;SDS011;7016;48.172;8.058;2024-01-11T14:20:59;68.22;;;37.17;;
13891;SDS011;7016;48.172;8.058;2024-01-11T14:23:46;70.50;;;36.10;;
13891;SDS011;7016;48.172;8.058;2024-01-11T14:26:32;65.22;;;34.92;;
13891;SDS011;7016;48.172;8.058;2024-01-11T14:29:18;69.80;;;36.80;;
13891;SDS011;7016;48.172;8.058;2024-01-11T14:32:04;69.07;;;36.33;;
13891;SDS011;7016;48.172;8.058;2024-01-11T14:34:51;69.60;;;36.38;;
13891;SDS011;7016;48.172;8.058;2024-01-11T14:37:38;63.97;;;35.63;;
13891;SDS011;7016;48.172;8.058;2024-01-11T14:40:24;69.47;;;37.20;;
13891;SDS011;7016;48.172;8.058;2024-01-11T14:43:11;73.47;;;37.17;;
13891;SDS011;7016;48.172;8.058;2024-01-11T14:45:57;68.97;;;36.00;;
13891;SDS011;7016;48.172;8.058;2024-01-11T14:48:43;67.18;;;36.60;;
13891;SDS011;7016;48.172;8.058;2024-01-11T14:51:29;69.70;;;35.65;;
13891;SDS011;7016;48.172;8.058;2024-01-11T14:54:19;75.07;;;38.15;;
13891;SDS011;7016;48.172;8.058;2024-01-11T14:57:05;70.90;;;39.53;;
13891;SDS011;7016;48.172;8.058;2024-01-11T14:59:52;70.50;;;37.45;;
13891;SDS011;7016;48.172;8.058;2024-01-11T15:02:38;72.22;;;39.33;;
13891;SDS011;7016;48.172;8.058;2024-01-11T15:05:26;75.10;;;39.92;;
13891;SDS011;7016;48.172;8.058;2024-01-11T15:08:12;74.32;;;38.50;;
13891;SDS011;7016;48.172;8.058;2024-01-11T15:10:58;71.03;;;38.92;;
13891;SDS011;7016;48.172;8.058;2024-01-11T15:13:44;75.40;;;38.90;;
13891;SDS011;7016;48.172;8.058;2024-01-11T15:16:31;74.43;;;39.20;;
13891;SDS011;7016;48.172;8.058;2024-01-11T15:19:18;72.32;;;38.67;;
13891;SDS011;7016;48.172;8.058;2024-01-11T15:22:04;74.32;;;37.80;;
13891;SDS011;7016;48.172;8.058;2024-01-11T15:24:54;74.97;;;37.50;;
13891;SDS011;7016;48.172;8.058;2024-01-11T15:27:40;71.40;;;38.78;;
13891;SDS011;7016;48.172;8.058;2024-01-11T15:30:27;78.47;;;39.97;;
13891;SDS011;7016;48.172;8.058;2024-01-11T15:33:13;73.43;;;39.42;;
13891;SDS011;7016;48.172;8.058;2024-01-11T15:36:00;71.13;;;39.05;;
13891;SDS011;7016;48.172;8.058;2024-01-11T15:38:46;71.30;;;39.50;;
13891;SDS011;7016;48.172;8.058;2024-01-11T15:41:32;74.43;;;39.58;;
13891;SDS011;7016;48.172;8.058;2024-01-11T15:44:18;73.93;;;40.22;;
13891;SDS011;7016;48.172;8.058;2024-01-11T15:47:05;74.05;;;39.35;;
13891;SDS011;7016;48.172;8.058;2024-01-11T15:49:51;76.07;;;39.30;;
13891;SDS011;7016;48.172;8.058;2024-01-11T15:52:38;70.75;;;39.72;;
13891;SDS011;7016;48.172;8.058;2024-01-11T15:55:24;76.65;;;40.40;;
13891;SDS011;7016;48.172;8.058;2024-01-11T15:58:11;68.15;;;38.65;;
13891;SDS011;7016;48.172;8.058;2024-01-11T16:00:57;75.10;;;38.97;;
13891;SDS011;7016;48.172;8.058;2024-01-11T16:03:43;76.05;;;39.60;;
13891;SDS011;7016;48.172;8.058;2024-01-11T16:06:31;76.43;;;40.55;;
13891;SDS011;7016;48.172;8.058;2024-01-11T16:09:18;75.05;;;40.17;;
13891;SDS011;7016;48.172;8.058;2024-01-11T16:12:04;73.85;;;40.10;;
13891;SDS011;7016;48.172;8.058;2024-01-11T16:14:51;77.68;;;40.90;;
13891;SDS011;7016;48.172;8.058;2024-01-11T16:17:39;77.00;;;40.20;;
13891;SDS011;7016;48.172;8.058;2024-01-11T16:20:25;73.15;;;41.10;;
13891;SDS011;7016;48.172;8.058;2024-01-11T16:23:11;72.35;;;37.35;;
13891;SDS011;7016;48.172;8.058;2024-01-11T16:25:58;69.20;;;39.67;;
13891;SDS011;7016;48.172;8.058;2024-01-11T16:28:45;72.78;;;38.70;;
13891;SDS011;7016;48.172;8.058;2024-01-11T16:31:31;74.97;;;39.33;;